sensor_id;sensor_type;location;lat;lon;timestamp;P1;durP1;ratioP1;P2;durP2;ratioP2
11141;SDS011;5625;50.122;19.864;2023-09-12T00:00:53;11.70;;;10.50;;
11141;SDS011;5625;50.122;19.864;2023-09-12T00:03:22;12.67;;;10.93;;
11141;SDS011;5625;50.122;19.864;2023-09-12T00:05:51;12.53;;;11.13;;
11141;SDS011;5625;50.122;19.864;2023-09-12T00:08:21;12.40;;;11.10;;
11141;SDS011;5625;50.122;19.864;2023-09-12T00:10:57;11.90;;;10.80;;
11141;SDS011;5625;50.122;19.864;2023-09-12T00:13:27;11.83;;;10.73;;
11141;SDS011;5625;50.122;19.864;2023-09-12T00:15:55;12.23;;;11.03;;
11141;SDS011;5625;50.122;19.864;2023-09-12T00:18:23;12.63;;;11.27;;
11141;SDS011;5625;50.122;19.864;2023-09-12T00:20:52;11.33;;;10.13;;
11141;SDS011;5625;50.122;19.864;2023-09-12T00:23:21;12.23;;;11.03;;
11141;SDS011;5625;50.122;19.864;2023-09-12T00:25:50;11.23;;;10.10;;
11141;SDS011;5625;50.122;19.864;2023-09-12T00:28:19;11.90;;;10.80;;
11141;SDS011;5625;50.122;19.864;2023-09-12T00:30:47;11.67;;;10.57;;
11141;SDS011;5625;50.122;19.864;2023-09-12T00:33:15;10.93;;;9.93;;
11141;SDS011;5625;50.122;19.864;2023-09-12T00:35:44;11.57;;;10.37;;
11141;SDS011;5625;50.122;19.864;2023-09-12T00:38:12;12.70;;;11.40;;
11141;SDS011;5625;50.122;19.864;2023-09-12T00:40:42;12.67;;;11.53;;
11141;SDS011;5625;50.122;19.864;2023-09-12T00:43:10;12.30;;;11.10;;
11141;SDS011;5625;50.122;19.864;2023-09-12T00:45:38;12.80;;;11.60;;
11141;SDS011;5625;50.122;19.864;2023-09-12T00:48:06;11.83;;;10.73;;
11141;SDS011;5625;50.122;19.864;2023-09-12T00:50:36;13.23;;;11.33;;
11141;SDS011;5625;50.122;19.864;2023-09-12T00:53:05;12.47;;;11.27;;
11141;SDS011;5625;50.122;19.864;2023-09-12T00:55:34;13.10;;;11.17;;
11141;SDS011;5625;50.122;19.864;2023-09-12T00:58:05;12.30;;;11.10;;
11141;SDS011;5625;50.122;19.864;2023-09-12T01:00:34;12.40;;;11.10;;
11141;SDS011;5625;50.122;19.864;2023-09-12T01:03:03;14.20;;;10.80;;
11141;SDS011;5625;50.122;19.864;2023-09-12T01:05:32;13.37;;;11.67;;
11141;SDS011;5625;50.122;19.864;2023-09-12T01:08:00;15.90;;;11.20;;
11141;SDS011;5625;50.122;19.864;2023-09-12T01:10:29;11.57;;;10.47;;
11141;SDS011;5625;50.122;19.864;2023-09-12T01:12:57;12.33;;;11.07;;
11141;SDS011;5625;50.122;19.864;2023-09-12T01:15:27;12.60;;;10.90;;
11141;SDS011;5625;50.122;19.864;2023-09-12T01:17:56;12.73;;;10.87;;
11141;SDS011;5625;50.122;19.864;2023-09-12T01:20:25;12.70;;;10.90;;
11141;SDS011;5625;50.122;19.864;2023-09-12T01:23:00;11.53;;;10.50;;
11141;SDS011;5625;50.122;19.864;2023-09-12T01:28:46;12.03;;;10.83;;
11141;SDS011;5625;50.122;19.864;2023-09-12T01:31:17;11.90;;;10.77;;
11141;SDS011;5625;50.122;19.864;2023-09-12T01:33:46;11.37;;;10.23;;
11141;SDS011;5625;50.122;19.864;2023-09-12T01:36:14;11.40;;;10.30;;
11141;SDS011;5625;50.122;19.864;2023-09-12T01:38:43;11.90;;;10.87;;
11141;SDS011;5625;50.122;19.864;2023-09-12T01:41:11;13.23;;;10.43;;
11141;SDS011;5625;50.122;19.864;2023-09-12T01:43:39;11.90;;;10.73;;
11141;SDS011;5625;50.122;19.864;2023-09-12T01:46:11;12.03;;;10.30;;
11141;SDS011;5625;50.122;19.864;2023-09-12T01:48:41;12.03;;;10.83;;
11141;SDS011;5625;50.122;19.864;2023-09-12T01:51:11;12.00;;;10.80;;
11141;SDS011;5625;50.122;19.864;2023-09-12T01:53:42;11.90;;;10.70;;
11141;SDS011;5625;50.122;19.864;2023-09-12T01:56:13;12.30;;;11.10;;
11141;SDS011;5625;50.122;19.864;2023-09-12T01:58:41;11.47;;;10.27;;
11141;SDS011;5625;50.122;19.864;2023-09-12T02:01:09;12.10;;;11.00;;
11141;SDS011;5625;50.122;19.864;2023-09-12T02:03:40;12.00;;;10.77;;
11141;SDS011;5625;50.122;19.864;2023-09-12T02:06:08;11.77;;;10.57;;
11141;SDS011;5625;50.122;19.864;2023-09-12T02:08:36;11.80;;;10.70;;
11141;SDS011;5625;50.122;19.864;2023-09-12T02:11:04;11.50;;;10.40;;
11141;SDS011;5625;50.122;19.864;2023-09-12T02:13:32;11.83;;;10.70;;
11141;SDS011;5625;50.122;19.864;2023-09-12T02:16:01;12.00;;;10.70;;
11141;SDS011;5625;50.122;19.864;2023-09-12T02:18:31;12.50;;;11.23;;
11141;SDS011;5625;50.122;19.864;2023-09-12T02:20:59;12.23;;;11.03;;
11141;SDS011;5625;50.122;19.864;2023-09-12T02:23:28;11.57;;;10.50;;
11141;SDS011;5625;50.122;19.864;2023-09-12T02:25:56;11.87;;;10.73;;
11141;SDS011;5625;50.122;19.864;2023-09-12T02:28:24;12.53;;;10.63;;
11141;SDS011;5625;50.122;19.864;2023-09-12T02:30:52;11.97;;;10.77;;
11141;SDS011;5625;50.122;19.864;2023-09-12T02:33:20;11.60;;;10.50;;
11141;SDS011;5625;50.122;19.864;2023-09-12T02:35:50;11.43;;;10.33;;
11141;SDS011;5625;50.122;19.864;2023-09-12T02:38:18;11.53;;;10.33;;
11141;SDS011;5625;50.122;19.864;2023-09-12T02:40:46;11.50;;;10.40;;
11141;SDS011;5625;50.122;19.864;2023-09-12T02:43:15;12.00;;;10.47;;
11141;SDS011;5625;50.122;19.864;2023-09-12T02:45:43;11.03;;;10.03;;
11141;SDS011;5625;50.122;19.864;2023-09-12T02:48:11;9.93;;;8.93;;
11141;SDS011;5625;50.122;19.864;2023-09-12T02:50:39;11.60;;;10.50;;
11141;SDS011;5625;50.122;19.864;2023-09-12T02:53:09;11.10;;;10.10;;
11141;SDS011;5625;50.122;19.864;2023-09-12T02:55:39;11.80;;;10.60;;
11141;SDS011;5625;50.122;19.864;2023-09-12T02:58:08;11.30;;;9.67;;
11141;SDS011;5625;50.122;19.864;2023-09-12T03:00:37;11.87;;;10.77;;
11141;SDS011;5625;50.122;19.864;2023-09-12T03:03:07;10.83;;;9.80;;
11141;SDS011;5625;50.122;19.864;2023-09-12T03:05:36;11.27;;;10.17;;
11141;SDS011;5625;50.122;19.864;2023-09-12T03:08:04;10.93;;;9.83;;
11141;SDS011;5625;50.122;19.864;2023-09-12T03:10:34;10.93;;;9.83;;
11141;SDS011;5625;50.122;19.864;2023-09-12T03:13:02;11.13;;;10.13;;
11141;SDS011;5625;50.122;19.864;2023-09-12T03:15:35;13.10;;;10.37;;
11141;SDS011;5625;50.122;19.864;2023-09-12T03:18:04;11.33;;;10.23;;
11141;SDS011;5625;50.122;19.864;2023-09-12T03:20:37;11.80;;;10.63;;
11141;SDS011;5625;50.122;19.864;2023-09-12T03:23:06;12.10;;;9.50;;
11141;SDS011;5625;50.122;19.864;2023-09-12T03:25:36;11.07;;;9.97;;
11141;SDS011;5625;50.122;19.864;2023-09-12T03:28:05;11.80;;;10.10;;
11141;SDS011;5625;50.122;19.864;2023-09-12T03:30:34;11.30;;;10.30;;
11141;SDS011;5625;50.122;19.864;2023-09-12T03:33:04;10.83;;;9.80;;
11141;SDS011;5625;50.122;19.864;2023-09-12T03:35:33;11.00;;;9.80;;
11141;SDS011;5625;50.122;19.864;2023-09-12T03:38:01;10.73;;;9.83;;
11141;SDS011;5625;50.122;19.864;2023-09-12T03:40:30;10.97;;;9.80;;
11141;SDS011;5625;50.122;19.864;2023-09-12T03:42:59;11.93;;;10.83;;
11141;SDS011;5625;50.122;19.864;2023-09-12T03:45:28;11.13;;;10.10;;
11141;SDS011;5625;50.122;19.864;2023-09-12T03:47:56;12.07;;;10.90;;
11141;SDS011;5625;50.122;19.864;2023-09-12T03:50:24;11.97;;;10.80;;
11141;SDS011;5625;50.122;19.864;2023-09-12T03:52:52;11.13;;;10.03;;
11141;SDS011;5625;50.122;19.864;2023-09-12T03:55:20;11.03;;;9.97;;
11141;SDS011;5625;50.122;19.864;2023-09-12T03:57:48;10.93;;;9.83;;
11141;SDS011;5625;50.122;19.864;2023-09-12T04:00:18;11.20;;;10.03;;
11141;SDS011;5625;50.122;19.864;2023-09-12T04:02:46;12.50;;;10.10;;
11141;SDS011;5625;50.122;19.864;2023-09-12T04:05:14;12.10;;;10.37;;
11141;SDS011;5625;50.122;19.864;2023-09-12T04:07:43;11.80;;;10.07;;
11141;SDS011;5625;50.122;19.864;2023-09-12T04:10:11;13.00;;;10.03;;
11141;SDS011;5625;50.122;19.864;2023-09-12T04:12:40;11.00;;;9.73;;
11141;SDS011;5625;50.122;19.864;2023-09-12T04:15:08;11.87;;;10.67;;
11141;SDS011;5625;50.122;19.864;2023-09-12T04:17:38;13.03;;;10.60;;
11141;SDS011;5625;50.122;19.864;2023-09-12T04:20:07;11.27;;;10.23;;
11141;SDS011;5625;50.122;19.864;2023-09-12T04:22:35;12.83;;;10.67;;
11141;SDS011;5625;50.122;19.864;2023-09-12T04:25:03;11.83;;;10.53;;
11141;SDS011;5625;50.122;19.864;2023-09-12T04:27:32;11.57;;;10.23;;
11141;SDS011;5625;50.122;19.864;2023-09-12T04:30:01;12.67;;;11.07;;
11141;SDS011;5625;50.122;19.864;2023-09-12T04:32:33;11.50;;;10.50;;
11141;SDS011;5625;50.122;19.864;2023-09-12T04:35:02;12.43;;;10.80;;
11141;SDS011;5625;50.122;19.864;2023-09-12T04:37:31;11.93;;;10.70;;
11141;SDS011;5625;50.122;19.864;2023-09-12T04:39:59;11.27;;;10.13;;
11141;SDS011;5625;50.122;19.864;2023-09-12T04:42:27;11.87;;;10.70;;
11141;SDS011;5625;50.122;19.864;2023-09-12T04:44:56;12.60;;;10.97;;
11141;SDS011;5625;50.122;19.864;2023-09-12T04:47:24;12.33;;;11.20;;
11141;SDS011;5625;50.122;19.864;2023-09-12T04:49:53;12.00;;;10.83;;
11141;SDS011;5625;50.122;19.864;2023-09-12T04:52:23;12.00;;;10.90;;
11141;SDS011;5625;50.122;19.864;2023-09-12T04:54:51;12.73;;;11.43;;
11141;SDS011;5625;50.122;19.864;2023-09-12T04:57:19;11.97;;;10.77;;
11141;SDS011;5625;50.122;19.864;2023-09-12T04:59:48;13.67;;;11.53;;
11141;SDS011;5625;50.122;19.864;2023-09-12T05:02:16;13.80;;;12.40;;
11141;SDS011;5625;50.122;19.864;2023-09-12T05:04:44;13.17;;;11.80;;
11141;SDS011;5625;50.122;19.864;2023-09-12T05:07:13;14.60;;;11.77;;
11141;SDS011;5625;50.122;19.864;2023-09-12T05:09:42;12.73;;;11.43;;
11141;SDS011;5625;50.122;19.864;2023-09-12T05:12:11;12.67;;;11.47;;
11141;SDS011;5625;50.122;19.864;2023-09-12T05:14:39;11.80;;;10.80;;
11141;SDS011;5625;50.122;19.864;2023-09-12T05:17:09;12.20;;;10.73;;
11141;SDS011;5625;50.122;19.864;2023-09-12T05:19:37;12.97;;;11.57;;
11141;SDS011;5625;50.122;19.864;2023-09-12T05:22:06;12.27;;;11.13;;
11141;SDS011;5625;50.122;19.864;2023-09-12T05:24:34;12.37;;;11.13;;
11141;SDS011;5625;50.122;19.864;2023-09-12T05:27:04;13.20;;;10.77;;
11141;SDS011;5625;50.122;19.864;2023-09-12T05:29:33;11.87;;;10.70;;
11141;SDS011;5625;50.122;19.864;2023-09-12T05:32:01;11.87;;;10.60;;
11141;SDS011;5625;50.122;19.864;2023-09-12T05:34:29;14.57;;;11.23;;
11141;SDS011;5625;50.122;19.864;2023-09-12T05:36:57;12.40;;;11.13;;
11141;SDS011;5625;50.122;19.864;2023-09-12T05:39:25;12.33;;;11.13;;
11141;SDS011;5625;50.122;19.864;2023-09-12T05:41:53;13.00;;;11.53;;
11141;SDS011;5625;50.122;19.864;2023-09-12T05:44:23;14.60;;;11.83;;
11141;SDS011;5625;50.122;19.864;2023-09-12T05:46:51;12.90;;;11.50;;
11141;SDS011;5625;50.122;19.864;2023-09-12T05:49:20;12.77;;;10.97;;
11141;SDS011;5625;50.122;19.864;2023-09-12T05:51:50;14.27;;;11.13;;
11141;SDS011;5625;50.122;19.864;2023-09-12T05:54:19;12.33;;;11.07;;
11141;SDS011;5625;50.122;19.864;2023-09-12T05:56:47;15.07;;;10.63;;
11141;SDS011;5625;50.122;19.864;2023-09-12T05:59:15;11.77;;;10.30;;
11141;SDS011;5625;50.122;19.864;2023-09-12T06:01:45;11.47;;;10.13;;
11141;SDS011;5625;50.122;19.864;2023-09-12T06:04:13;11.60;;;10.03;;
11141;SDS011;5625;50.122;19.864;2023-09-12T06:06:41;15.50;;;11.13;;
11141;SDS011;5625;50.122;19.864;2023-09-12T06:09:09;13.03;;;10.73;;
11141;SDS011;5625;50.122;19.864;2023-09-12T06:11:37;11.23;;;10.07;;
11141;SDS011;5625;50.122;19.864;2023-09-12T06:14:06;10.80;;;9.70;;
11141;SDS011;5625;50.122;19.864;2023-09-12T06:16:34;12.37;;;9.70;;
11141;SDS011;5625;50.122;19.864;2023-09-12T06:19:04;11.10;;;9.97;;
11141;SDS011;5625;50.122;19.864;2023-09-12T06:21:32;10.40;;;9.33;;
11141;SDS011;5625;50.122;19.864;2023-09-12T06:24:10;15.00;;;10.33;;
11141;SDS011;5625;50.122;19.864;2023-09-12T06:26:40;12.13;;;10.13;;
11141;SDS011;5625;50.122;19.864;2023-09-12T06:29:08;14.17;;;10.53;;
11141;SDS011;5625;50.122;19.864;2023-09-12T06:31:37;13.23;;;11.00;;
11141;SDS011;5625;50.122;19.864;2023-09-12T06:34:07;13.90;;;10.77;;
11141;SDS011;5625;50.122;19.864;2023-09-12T06:36:35;11.57;;;10.37;;
11141;SDS011;5625;50.122;19.864;2023-09-12T06:39:04;12.53;;;10.67;;
11141;SDS011;5625;50.122;19.864;2023-09-12T06:41:32;12.27;;;10.03;;
11141;SDS011;5625;50.122;19.864;2023-09-12T06:44:00;11.80;;;10.60;;
11141;SDS011;5625;50.122;19.864;2023-09-12T06:46:30;11.30;;;10.13;;
11141;SDS011;5625;50.122;19.864;2023-09-12T06:49:02;13.43;;;10.30;;
11141;SDS011;5625;50.122;19.864;2023-09-12T06:51:32;13.63;;;10.03;;
11141;SDS011;5625;50.122;19.864;2023-09-12T06:54:04;12.33;;;10.57;;
11141;SDS011;5625;50.122;19.864;2023-09-12T06:56:32;11.37;;;10.20;;
11141;SDS011;5625;50.122;19.864;2023-09-12T06:59:04;12.03;;;10.83;;
11141;SDS011;5625;50.122;19.864;2023-09-12T07:01:32;12.70;;;10.13;;
11141;SDS011;5625;50.122;19.864;2023-09-12T07:04:01;11.60;;;10.40;;
11141;SDS011;5625;50.122;19.864;2023-09-12T07:06:29;13.97;;;10.40;;
11141;SDS011;5625;50.122;19.864;2023-09-12T07:09:00;11.15;;;10.13;;
11141;SDS011;5625;50.122;19.864;2023-09-12T07:11:28;11.93;;;10.73;;
11141;SDS011;5625;50.122;19.864;2023-09-12T07:13:57;13.02;;;10.50;;
11141;SDS011;5625;50.122;19.864;2023-09-12T07:16:25;11.50;;;9.60;;
11141;SDS011;5625;50.122;19.864;2023-09-12T07:18:53;11.00;;;9.15;;
11141;SDS011;5625;50.122;19.864;2023-09-12T07:21:21;13.32;;;9.52;;
11141;SDS011;5625;50.122;19.864;2023-09-12T07:23:51;10.82;;;9.73;;
11141;SDS011;5625;50.122;19.864;2023-09-12T07:26:19;10.32;;;9.20;;
11141;SDS011;5625;50.122;19.864;2023-09-12T07:28:53;10.38;;;9.20;;
11141;SDS011;5625;50.122;19.864;2023-09-12T07:31:21;10.75;;;9.65;;
11141;SDS011;5625;50.122;19.864;2023-09-12T07:33:49;10.57;;;9.52;;
11141;SDS011;5625;50.122;19.864;2023-09-12T07:36:17;9.88;;;8.93;;
11141;SDS011;5625;50.122;19.864;2023-09-12T07:38:46;13.13;;;9.43;;
11141;SDS011;5625;50.122;19.864;2023-09-12T07:41:16;10.40;;;9.40;;
11141;SDS011;5625;50.122;19.864;2023-09-12T07:43:45;12.05;;;10.00;;
11141;SDS011;5625;50.122;19.864;2023-09-12T07:46:13;11.07;;;10.07;;
11141;SDS011;5625;50.122;19.864;2023-09-12T07:48:42;11.32;;;10.18;;
11141;SDS011;5625;50.122;19.864;2023-09-12T07:51:13;11.00;;;9.90;;
11141;SDS011;5625;50.122;19.864;2023-09-12T07:53:44;12.35;;;9.02;;
11141;SDS011;5625;50.122;19.864;2023-09-12T07:56:12;12.68;;;9.25;;
11141;SDS011;5625;50.122;19.864;2023-09-12T07:58:42;10.57;;;8.80;;
11141;SDS011;5625;50.122;19.864;2023-09-12T08:01:10;9.60;;;8.60;;
11141;SDS011;5625;50.122;19.864;2023-09-12T08:03:39;10.88;;;9.07;;
11141;SDS011;5625;50.122;19.864;2023-09-12T08:06:10;11.27;;;8.50;;
11141;SDS011;5625;50.122;19.864;2023-09-12T08:08:39;9.25;;;8.13;;
11141;SDS011;5625;50.122;19.864;2023-09-12T08:11:11;9.75;;;8.23;;
11141;SDS011;5625;50.122;19.864;2023-09-12T08:13:39;11.00;;;7.75;;
11141;SDS011;5625;50.122;19.864;2023-09-12T08:16:09;8.57;;;7.68;;
11141;SDS011;5625;50.122;19.864;2023-09-12T08:18:37;9.43;;;7.97;;
11141;SDS011;5625;50.122;19.864;2023-09-12T08:21:05;11.75;;;8.18;;
11141;SDS011;5625;50.122;19.864;2023-09-12T08:23:33;9.82;;;8.05;;
11141;SDS011;5625;50.122;19.864;2023-09-12T08:26:02;10.70;;;7.60;;
11141;SDS011;5625;50.122;19.864;2023-09-12T08:28:30;9.75;;;8.32;;
11141;SDS011;5625;50.122;19.864;2023-09-12T08:30:59;9.77;;;7.53;;
11141;SDS011;5625;50.122;19.864;2023-09-12T08:33:28;10.18;;;8.35;;
11141;SDS011;5625;50.122;19.864;2023-09-12T08:35:56;11.18;;;8.05;;
11141;SDS011;5625;50.122;19.864;2023-09-12T08:38:24;13.25;;;8.50;;
11141;SDS011;5625;50.122;19.864;2023-09-12T08:40:53;14.30;;;8.80;;
11141;SDS011;5625;50.122;19.864;2023-09-12T08:43:21;12.00;;;8.63;;
11141;SDS011;5625;50.122;19.864;2023-09-12T08:45:49;12.65;;;8.93;;
11141;SDS011;5625;50.122;19.864;2023-09-12T08:48:18;12.50;;;8.73;;
11141;SDS011;5625;50.122;19.864;2023-09-12T08:50:51;10.35;;;8.10;;
11141;SDS011;5625;50.122;19.864;2023-09-12T08:53:21;8.93;;;8.02;;
11141;SDS011;5625;50.122;19.864;2023-09-12T08:55:49;11.23;;;7.75;;
11141;SDS011;5625;50.122;19.864;2023-09-12T08:58:20;11.57;;;8.18;;
11141;SDS011;5625;50.122;19.864;2023-09-12T09:00:49;9.70;;;8.35;;
11141;SDS011;5625;50.122;19.864;2023-09-12T09:03:19;10.57;;;7.68;;
11141;SDS011;5625;50.122;19.864;2023-09-12T09:05:49;12.38;;;7.88;;
11141;SDS011;5625;50.122;19.864;2023-09-12T09:08:20;9.75;;;7.78;;
11141;SDS011;5625;50.122;19.864;2023-09-12T09:10:56;8.30;;;6.90;;
11141;SDS011;5625;50.122;19.864;2023-09-12T09:13:24;7.00;;;6.40;;
11141;SDS011;5625;50.122;19.864;2023-09-12T09:18:49;8.77;;;6.90;;
11141;SDS011;5625;50.122;19.864;2023-09-12T09:21:22;7.90;;;6.07;;
11141;SDS011;5625;50.122;19.864;2023-09-12T09:23:53;7.22;;;6.53;;
11141;SDS011;5625;50.122;19.864;2023-09-12T09:26:22;9.90;;;6.80;;
11141;SDS011;5625;50.122;19.864;2023-09-12T09:29:03;8.80;;;7.30;;
11141;SDS011;5625;50.122;19.864;2023-09-12T09:31:33;7.55;;;6.25;;
11141;SDS011;5625;50.122;19.864;2023-09-12T09:34:01;7.25;;;6.25;;
11141;SDS011;5625;50.122;19.864;2023-09-12T09:36:30;7.85;;;6.03;;
11141;SDS011;5625;50.122;19.864;2023-09-12T09:39:01;6.88;;;6.18;;
11141;SDS011;5625;50.122;19.864;2023-09-12T09:41:31;7.55;;;6.45;;
11141;SDS011;5625;50.122;19.864;2023-09-12T09:44:00;6.85;;;6.15;;
11141;SDS011;5625;50.122;19.864;2023-09-12T09:46:30;6.72;;;5.88;;
11141;SDS011;5625;50.122;19.864;2023-09-12T09:48:59;6.28;;;5.68;;
11141;SDS011;5625;50.122;19.864;2023-09-12T09:51:29;6.90;;;6.15;;
11141;SDS011;5625;50.122;19.864;2023-09-12T09:53:58;6.15;;;5.55;;
11141;SDS011;5625;50.122;19.864;2023-09-12T09:56:44;6.20;;;5.60;;
11141;SDS011;5625;50.122;19.864;2023-09-12T09:59:14;5.85;;;5.30;;
11141;SDS011;5625;50.122;19.864;2023-09-12T10:01:44;5.88;;;4.85;;
11141;SDS011;5625;50.122;19.864;2023-09-12T10:04:13;5.97;;;5.47;;
11141;SDS011;5625;50.122;19.864;2023-09-12T10:06:43;5.90;;;5.32;;
11141;SDS011;5625;50.122;19.864;2023-09-12T10:09:15;5.82;;;5.30;;
11141;SDS011;5625;50.122;19.864;2023-09-12T10:11:44;5.45;;;4.90;;
11141;SDS011;5625;50.122;19.864;2023-09-12T10:14:15;6.93;;;5.28;;
11141;SDS011;5625;50.122;19.864;2023-09-12T10:16:46;7.55;;;5.13;;
11141;SDS011;5625;50.122;19.864;2023-09-12T10:19:18;6.03;;;5.43;;
11141;SDS011;5625;50.122;19.864;2023-09-12T10:21:54;6.03;;;5.18;;
11141;SDS011;5625;50.122;19.864;2023-09-12T10:24:29;5.53;;;5.13;;
11141;SDS011;5625;50.122;19.864;2023-09-12T10:26:58;5.80;;;5.30;;
11141;SDS011;5625;50.122;19.864;2023-09-12T10:29:26;5.35;;;4.88;;
11141;SDS011;5625;50.122;19.864;2023-09-12T10:31:55;5.85;;;4.75;;
11141;SDS011;5625;50.122;19.864;2023-09-12T10:34:24;6.20;;;5.70;;
11141;SDS011;5625;50.122;19.864;2023-09-12T10:36:53;8.07;;;5.20;;
11141;SDS011;5625;50.122;19.864;2023-09-12T10:39:25;6.10;;;5.50;;
11141;SDS011;5625;50.122;19.864;2023-09-12T10:41:56;5.60;;;5.00;;
11141;SDS011;5625;50.122;19.864;2023-09-12T10:44:25;7.15;;;5.13;;
11141;SDS011;5625;50.122;19.864;2023-09-12T10:46:54;6.22;;;5.45;;
11141;SDS011;5625;50.122;19.864;2023-09-12T10:49:23;5.28;;;4.70;;
11141;SDS011;5625;50.122;19.864;2023-09-12T10:51:53;4.97;;;4.47;;
11141;SDS011;5625;50.122;19.864;2023-09-12T10:54:23;7.25;;;4.97;;
11141;SDS011;5625;50.122;19.864;2023-09-12T10:57:03;5.15;;;4.63;;
11141;SDS011;5625;50.122;19.864;2023-09-12T10:59:32;7.88;;;5.25;;
11141;SDS011;5625;50.122;19.864;2023-09-12T11:04:55;5.88;;;4.90;;
11141;SDS011;5625;50.122;19.864;2023-09-12T11:07:31;6.32;;;4.95;;
11141;SDS011;5625;50.122;19.864;2023-09-12T11:10:16;6.57;;;5.00;;
11141;SDS011;5625;50.122;19.864;2023-09-12T11:12:49;8.07;;;5.28;;
11141;SDS011;5625;50.122;19.864;2023-09-12T11:15:22;5.50;;;5.07;;
11141;SDS011;5625;50.122;19.864;2023-09-12T11:17:59;5.90;;;5.40;;
11141;SDS011;5625;50.122;19.864;2023-09-12T11:23:20;6.20;;;5.65;;
11141;SDS011;5625;50.122;19.864;2023-09-12T11:25:48;6.25;;;5.00;;
11141;SDS011;5625;50.122;19.864;2023-09-12T11:28:32;7.63;;;5.30;;
11141;SDS011;5625;50.122;19.864;2023-09-12T11:31:01;5.78;;;5.28;;
11141;SDS011;5625;50.122;19.864;2023-09-12T11:33:29;6.18;;;5.00;;
11141;SDS011;5625;50.122;19.864;2023-09-12T11:36:00;5.43;;;4.70;;
11141;SDS011;5625;50.122;19.864;2023-09-12T11:38:37;6.57;;;5.20;;
11141;SDS011;5625;50.122;19.864;2023-09-12T11:41:05;6.07;;;5.00;;
11141;SDS011;5625;50.122;19.864;2023-09-12T11:43:34;5.38;;;4.88;;
11141;SDS011;5625;50.122;19.864;2023-09-12T11:46:06;6.05;;;5.10;;
11141;SDS011;5625;50.122;19.864;2023-09-12T11:48:36;5.95;;;5.45;;
11141;SDS011;5625;50.122;19.864;2023-09-12T11:51:06;6.10;;;5.07;;
11141;SDS011;5625;50.122;19.864;2023-09-12T11:53:35;5.85;;;5.35;;
11141;SDS011;5625;50.122;19.864;2023-09-12T11:56:03;5.93;;;5.32;;
11141;SDS011;5625;50.122;19.864;2023-09-12T11:58:32;5.97;;;5.28;;
11141;SDS011;5625;50.122;19.864;2023-09-12T12:01:02;6.50;;;5.15;;
11141;SDS011;5625;50.122;19.864;2023-09-12T12:03:30;5.60;;;5.20;;
11141;SDS011;5625;50.122;19.864;2023-09-12T12:05:59;5.60;;;5.18;;
11141;SDS011;5625;50.122;19.864;2023-09-12T12:08:29;5.30;;;4.85;;
11141;SDS011;5625;50.122;19.864;2023-09-12T12:10:59;4.90;;;4.50;;
11141;SDS011;5625;50.122;19.864;2023-09-12T12:13:28;4.97;;;4.47;;
11141;SDS011;5625;50.122;19.864;2023-09-12T12:15:57;6.90;;;4.68;;
11141;SDS011;5625;50.122;19.864;2023-09-12T12:18:26;4.93;;;4.47;;
11141;SDS011;5625;50.122;19.864;2023-09-12T12:20:55;5.38;;;4.70;;
11141;SDS011;5625;50.122;19.864;2023-09-12T12:23:23;4.80;;;4.40;;
11141;SDS011;5625;50.122;19.864;2023-09-12T12:25:53;6.75;;;4.80;;
11141;SDS011;5625;50.122;19.864;2023-09-12T12:28:21;6.13;;;4.78;;
11141;SDS011;5625;50.122;19.864;2023-09-12T12:30:50;6.75;;;5.10;;
11141;SDS011;5625;50.122;19.864;2023-09-12T12:33:21;4.93;;;4.22;;
11141;SDS011;5625;50.122;19.864;2023-09-12T12:36:10;9.27;;;5.40;;
11141;SDS011;5625;50.122;19.864;2023-09-12T12:38:39;5.88;;;5.00;;
11141;SDS011;5625;50.122;19.864;2023-09-12T12:41:21;5.50;;;5.00;;
11141;SDS011;5625;50.122;19.864;2023-09-12T12:43:58;5.20;;;4.70;;
11141;SDS011;5625;50.122;19.864;2023-09-12T12:46:30;5.10;;;4.55;;
11141;SDS011;5625;50.122;19.864;2023-09-12T12:48:58;6.32;;;4.88;;
11141;SDS011;5625;50.122;19.864;2023-09-12T12:51:28;7.63;;;4.90;;
11141;SDS011;5625;50.122;19.864;2023-09-12T12:54:02;5.38;;;4.88;;
11141;SDS011;5625;50.122;19.864;2023-09-12T12:56:31;5.47;;;4.97;;
11141;SDS011;5625;50.122;19.864;2023-09-12T12:59:01;8.00;;;4.93;;
11141;SDS011;5625;50.122;19.864;2023-09-12T13:01:33;6.80;;;4.88;;
11141;SDS011;5625;50.122;19.864;2023-09-12T13:04:02;5.53;;;4.85;;
11141;SDS011;5625;50.122;19.864;2023-09-12T13:06:34;5.07;;;4.65;;
11141;SDS011;5625;50.122;19.864;2023-09-12T13:09:03;6.45;;;5.15;;
11141;SDS011;5625;50.122;19.864;2023-09-12T13:11:33;5.78;;;5.18;;
11141;SDS011;5625;50.122;19.864;2023-09-12T13:14:02;5.80;;;5.15;;
11141;SDS011;5625;50.122;19.864;2023-09-12T13:16:35;5.32;;;4.93;;
11141;SDS011;5625;50.122;19.864;2023-09-12T13:19:06;7.20;;;5.35;;
11141;SDS011;5625;50.122;19.864;2023-09-12T13:21:35;5.70;;;5.28;;
11141;SDS011;5625;50.122;19.864;2023-09-12T13:24:04;5.82;;;5.28;;
11141;SDS011;5625;50.122;19.864;2023-09-12T13:26:32;5.68;;;5.20;;
11141;SDS011;5625;50.122;19.864;2023-09-12T13:29:00;6.07;;;5.50;;
11141;SDS011;5625;50.122;19.864;2023-09-12T13:31:31;5.80;;;5.20;;
11141;SDS011;5625;50.122;19.864;2023-09-12T13:33:59;6.18;;;5.57;;
11141;SDS011;5625;50.122;19.864;2023-09-12T13:36:29;5.70;;;5.20;;
11141;SDS011;5625;50.122;19.864;2023-09-12T13:38:59;8.48;;;5.15;;
11141;SDS011;5625;50.122;19.864;2023-09-12T13:41:27;7.85;;;5.38;;
11141;SDS011;5625;50.122;19.864;2023-09-12T13:43:55;6.18;;;5.63;;
11141;SDS011;5625;50.122;19.864;2023-09-12T13:46:23;5.82;;;5.30;;
11141;SDS011;5625;50.122;19.864;2023-09-12T13:48:52;5.90;;;5.38;;
11141;SDS011;5625;50.122;19.864;2023-09-12T13:51:20;6.68;;;5.70;;
11141;SDS011;5625;50.122;19.864;2023-09-12T13:53:48;6.38;;;5.80;;
11141;SDS011;5625;50.122;19.864;2023-09-12T13:56:17;8.10;;;5.47;;
11141;SDS011;5625;50.122;19.864;2023-09-12T13:58:46;6.13;;;5.60;;
11141;SDS011;5625;50.122;19.864;2023-09-12T14:01:18;6.10;;;5.60;;
11141;SDS011;5625;50.122;19.864;2023-09-12T14:04:00;7.22;;;5.40;;
11141;SDS011;5625;50.122;19.864;2023-09-12T14:06:32;5.97;;;5.38;;
11141;SDS011;5625;50.122;19.864;2023-09-12T14:09:03;7.07;;;5.47;;
11141;SDS011;5625;50.122;19.864;2023-09-12T14:11:33;5.88;;;5.45;;
11141;SDS011;5625;50.122;19.864;2023-09-12T14:14:03;5.93;;;5.38;;
11141;SDS011;5625;50.122;19.864;2023-09-12T14:16:34;6.22;;;5.25;;
11141;SDS011;5625;50.122;19.864;2023-09-12T14:19:03;6.53;;;5.63;;
11141;SDS011;5625;50.122;19.864;2023-09-12T14:21:32;7.32;;;6.03;;
11141;SDS011;5625;50.122;19.864;2023-09-12T14:24:01;8.10;;;5.90;;
11141;SDS011;5625;50.122;19.864;2023-09-12T14:26:32;7.95;;;5.65;;
11141;SDS011;5625;50.122;19.864;2023-09-12T14:29:01;8.15;;;5.60;;
11141;SDS011;5625;50.122;19.864;2023-09-12T14:31:31;6.47;;;5.53;;
11141;SDS011;5625;50.122;19.864;2023-09-12T14:33:59;6.68;;;5.38;;
11141;SDS011;5625;50.122;19.864;2023-09-12T14:36:28;6.35;;;5.75;;
11141;SDS011;5625;50.122;19.864;2023-09-12T14:38:57;6.38;;;5.88;;
11141;SDS011;5625;50.122;19.864;2023-09-12T14:41:25;6.13;;;5.63;;
11141;SDS011;5625;50.122;19.864;2023-09-12T14:43:54;7.60;;;5.20;;
11141;SDS011;5625;50.122;19.864;2023-09-12T14:46:22;6.22;;;5.60;;
11141;SDS011;5625;50.122;19.864;2023-09-12T14:48:51;7.22;;;5.70;;
11141;SDS011;5625;50.122;19.864;2023-09-12T14:51:28;6.85;;;5.97;;
11141;SDS011;5625;50.122;19.864;2023-09-12T14:54:00;7.20;;;6.50;;
11141;SDS011;5625;50.122;19.864;2023-09-12T14:56:28;10.02;;;7.05;;
11141;SDS011;5625;50.122;19.864;2023-09-12T14:58:58;8.38;;;6.97;;